Time;durP1;ratioP1;P1;durP2;ratioP2;P2;SDS_P1;SDS_P2;PMS_P1;PMS_P2;Temp;Humidity;BMP_temperature;BMP_pressure;BME280_temperature;BME280_humidity;BME280_pressure;Samples;Min_cycle;Max_cycle;Signal;HPM_P1;HPM_P2
2021/08/30 04:19:39;;;;;;;193.30;184.90;;;15.50;99.90;;;;;;6221154;22;20554;-79
2021/08/30 04:22:06;;;;;;;188.70;180.50;;;15.50;99.90;;;;;;6226591;23;20415;-79
2021/08/30 04:24:33;;;;;;;201.73;193.03;;;15.50;99.90;;;;;;6216611;23;20462;-80
2021/08/30 04:27:00;;;;;;;198.60;190.00;;;15.50;99.90;;;;;;6225124;23;20422;-79
2021/08/30 04:29:28;;;;;;;197.90;189.30;;;15.50;99.90;;;;;;6226455;23;20930;-80
2021/08/30 04:31:55;;;;;;;205.30;196.50;;;15.50;99.90;;;;;;6226833;23;20401;-80
2021/08/30 04:34:22;;;;;;;195.87;187.27;;;15.50;99.90;;;;;;6216377;23;20406;-80
2021/08/30 04:36:51;;;;;;;197.73;189.03;;;15.50;99.90;;;;;;6216582;23;20483;-79
2021/08/30 04:39:18;;;;;;;199.57;190.77;;;15.50;99.90;;;;;;6216376;23;20428;-81
2021/08/30 04:41:45;;;;;;;200.93;192.23;;;15.50;99.90;;;;;;6224919;23;20412;-79
2021/08/30 04:44:21;;;;;;;197.50;188.80;;;15.50;99.90;;;;;;6216080;23;20992;-85
2021/08/30 04:46:50;;;;;;;194.10;185.50;;;15.50;99.90;;;;;;6226692;23;20731;-82
2021/08/30 04:49:23;;;;;;;189.67;181.17;;;15.50;99.90;;;;;;6216300;23;20407;-83
2021/08/30 05:24:54;;;;;;;189.00;180.50;;;15.60;99.90;;;;;;6255409;22;21312;31
2021/08/30 05:27:21;;;;;;;197.40;188.70;;;15.60;99.90;;;;;;6224738;23;20427;-81
2021/08/30 05:29:49;;;;;;;197.03;188.43;;;15.60;99.90;;;;;;6225778;23;20412;-81
2021/08/30 05:32:15;;;;;;;195.70;187.10;;;15.70;99.90;;;;;;6215865;23;20937;-80
2021/08/30 05:34:49;;;;;;;198.37;189.77;;;15.70;99.90;;;;;;6216180;23;20397;-84
2021/08/30 06:39:00;;;;;;;163.03;156.07;;;16.40;99.90;;;;;;5862724;23;20444;-77
2021/08/30 06:55:03;;;;;;;110.13;105.90;;;16.80;99.90;;;;;;5797571;24;20738;-86
2021/08/30 06:57:33;;;;;;;108.33;104.23;;;16.80;99.90;;;;;;5977321;24;21039;-82
2021/08/30 07:00:00;;;;;;;108.17;104.07;;;16.80;99.90;;;;;;6161196;23;20413;-84
2021/08/30 07:02:27;;;;;;;96.80;93.20;;;16.90;99.90;;;;;;6246116;22;20417;-86
2021/08/30 07:04:54;;;;;;;99.13;95.43;;;16.80;99.90;;;;;;6274030;22;20571;-88
2021/08/30 07:07:26;;;;;;;99.93;96.23;;;16.80;99.90;;;;;;6274686;22;20460;-88
2021/08/30 07:09:54;;;;;;;109.43;105.33;;;16.80;99.90;;;;;;6274239;22;20482;-83
2021/08/30 07:12:24;;;;;;;83.40;80.30;;;16.90;99.90;;;;;;6274749;22;20408;-88
2021/08/30 07:14:51;;;;;;;85.97;82.77;;;16.90;99.90;;;;;;6286681;22;20448;-89
2021/08/30 07:17:22;;;;;;;75.80;73.00;;;16.90;99.90;;;;;;6286845;22;20542;-86
2021/08/30 07:19:49;;;;;;;75.20;72.40;;;17.00;99.90;;;;;;6275953;22;20489;-85
2021/08/30 07:22:16;;;;;;;70.00;67.30;;;17.10;99.90;;;;;;6286471;22;20429;-89
2021/08/30 07:24:46;;;;;;;62.03;59.73;;;17.20;99.90;;;;;;6276149;22;20550;-85
2021/08/30 07:27:36;;;;;;;55.00;52.90;;;17.10;99.90;;;;;;6285029;22;20417;-82
2021/08/30 07:30:06;;;;;;;43.30;41.70;;;17.20;99.90;;;;;;6245247;22;20476;-81
2021/08/30 07:32:32;;;;;;;41.47;39.97;;;17.30;99.90;;;;;;6276309;22;20405;-89
2021/08/30 07:34:59;;;;;;;38.93;37.43;;;17.50;99.90;;;;;;6286705;22;20466;-88
2021/08/30 07:37:26;;;;;;;37.50;36.10;;;17.50;99.90;;;;;;6286579;22;20413;-87
2021/08/30 07:39:55;;;;;;;32.20;31.00;;;17.60;99.90;;;;;;6276328;22;20402;-87
2021/08/30 07:42:22;;;;;;;32.87;31.57;;;17.50;99.90;;;;;;6284922;22;20406;-86
2021/08/30 07:44:49;;;;;;;32.90;31.70;;;17.50;99.90;;;;;;6286189;22;20913;-88
2021/08/30 07:47:18;;;;;;;34.37;33.07;;;17.40;99.90;;;;;;6286601;22;20920;-86
2021/08/30 07:49:44;;;;;;;35.73;34.43;;;17.30;99.90;;;;;;6286184;22;20482;-86
2021/08/30 07:52:11;;;;;;;29.70;28.60;;;17.40;99.90;;;;;;6287681;22;20459;-89
2021/08/30 07:54:38;;;;;;;33.83;31.90;;;17.30;99.90;;;;;;6288113;22;20496;-88
2021/08/30 07:57:06;;;;;;;31.13;29.93;;;17.30;99.90;;;;;;6286681;22;20476;-88
2021/08/30 07:59:35;;;;;;;30.87;29.67;;;17.30;99.90;;;;;;6288468;22;20457;-84
2021/08/30 08:02:02;;;;;;;28.30;27.20;;;17.30;99.90;;;;;;6288206;22;20771;-83
2021/08/30 08:04:33;;;;;;;29.20;28.10;;;17.20;99.90;;;;;;6278066;22;20428;-85
2021/08/30 08:07:03;;;;;;;32.87;31.67;;;17.20;99.90;;;;;;6287932;22;20444;-85
2021/08/30 08:09:31;;;;;;;29.23;28.13;;;17.20;99.90;;;;;;6287980;22;20490;-86
2021/08/30 08:11:58;;;;;;;29.27;28.17;;;17.30;99.90;;;;;;6275077;22;20415;-85
2021/08/30 08:14:32;;;;;;;32.30;31.10;;;17.30;99.90;;;;;;6277295;22;20479;-86
2021/08/30 08:16:59;;;;;;;30.70;29.50;;;17.20;99.90;;;;;;6277550;22;20951;-87
2021/08/30 08:19:28;;;;;;;32.47;31.27;;;17.20;99.90;;;;;;6274583;22;20401;-85
2021/08/30 08:21:57;;;;;;;33.47;32.13;;;17.10;99.90;;;;;;6286163;22;20454;-85
2021/08/30 08:24:24;;;;;;;31.93;30.73;;;17.10;99.90;;;;;;6276450;22;20411;-85
2021/08/30 08:26:51;;;;;;;30.20;29.00;;;17.10;99.90;;;;;;6285878;22;20966;-79
2021/08/30 08:29:23;;;;;;;27.33;26.23;;;17.50;99.90;;;;;;6278072;22;20403;-88
2021/08/30 08:31:52;;;;;;;26.30;25.00;;;17.60;99.90;;;;;;6288213;22;20448;-83
2021/08/30 08:34:50;;;;;;;26.40;25.00;;;17.80;99.90;;;;;;6288003;22;20402;-83
2021/08/30 08:37:32;;;;;;;22.17;21.27;;;18.20;99.90;;;;;;6277373;22;20440;-83
2021/08/30 08:40:06;;;;;;;20.50;19.70;;;18.40;99.90;;;;;;6277256;22;20403;-86
2021/08/30 08:42:38;;;;;;;24.55;23.25;;;18.30;99.90;;;;;;6275384;22;20473;-85
2021/08/30 08:45:13;;;;;;;22.07;20.97;;;18.50;99.90;;;;;;6287371;22;20197;-85
2021/08/30 08:47:42;;;;;;;19.88;19.08;;;18.30;99.90;;;;;;6287027;22;20415;-78
2021/08/30 08:50:22;;;;;;;17.70;17.00;;;18.10;99.90;;;;;;6287999;22;20165;-84
2021/08/30 08:52:50;;;;;;;18.90;18.10;;;18.10;99.90;;;;;;6287824;22;20417;-84
2021/08/30 08:55:22;;;;;;;17.60;16.90;;;18.00;99.90;;;;;;6286624;22;20404;-84
2021/08/30 08:57:48;;;;;;;18.10;17.40;;;18.00;99.90;;;;;;6277170;22;20427;-81
2021/08/30 09:00:21;;;;;;;19.30;18.50;;;18.00;99.90;;;;;;6277495;22;20398;-83
2021/08/30 09:02:50;;;;;;;15.80;15.10;;;18.10;99.90;;;;;;6277612;22;20400;-84
2021/08/30 09:05:23;;;;;;;17.53;16.83;;;17.90;99.90;;;;;;6287781;22;20424;-85
2021/08/30 09:07:52;;;;;;;18.23;17.50;;;17.70;99.90;;;;;;6287839;22;20399;-85
2021/08/30 09:10:25;;;;;;;17.20;16.50;;;17.70;99.90;;;;;;6282485;22;20413;-84
2021/08/30 09:13:03;;;;;;;16.63;15.93;;;17.80;99.90;;;;;;6285424;22;20436;-86
2021/08/30 09:15:30;;;;;;;17.67;16.97;;;17.80;99.90;;;;;;6275129;22;21033;-85
2021/08/30 09:17:58;;;;;;;15.90;15.20;;;18.00;99.90;;;;;;6285996;22;20975;-88
2021/08/30 09:20:28;;;;;;;15.37;14.73;;;18.00;99.90;;;;;;6285068;22;20993;-86
2021/08/30 09:22:57;;;;;;;17.40;16.40;;;18.00;99.90;;;;;;6275802;22;20800;-84
2021/08/30 09:25:29;;;;;;;15.53;14.83;;;18.00;99.90;;;;;;6284252;22;20438;-83
2021/08/30 09:27:58;;;;;;;15.70;15.00;;;18.10;99.90;;;;;;6275491;22;20398;-83
2021/08/30 09:30:27;;;;;;;18.83;17.93;;;18.10;99.90;;;;;;6275354;22;20509;-81
2021/08/30 09:32:54;;;;;;;15.77;15.07;;;18.10;99.90;;;;;;6285811;22;20433;-81
2021/08/30 09:35:26;;;;;;;15.37;14.67;;;18.20;99.90;;;;;;6286892;22;20411;-83
2021/08/30 09:37:54;;;;;;;14.70;14.10;;;18.10;99.90;;;;;;6287158;22;20397;-84
2021/08/30 09:40:27;;;;;;;15.63;14.77;;;18.20;99.90;;;;;;6276679;22;20400;-84
2021/08/30 09:43:01;;;;;;;15.20;14.60;;;18.20;99.90;;;;;;6287619;22;20404;-86
2021/08/30 09:45:29;;;;;;;16.63;15.83;;;18.30;99.90;;;;;;6287095;22;20464;-83
2021/08/30 09:48:03;;;;;;;12.93;12.33;;;18.40;99.90;;;;;;6276658;22;20407;-84
2021/08/30 09:50:31;;;;;;;12.43;11.90;;;18.40;99.90;;;;;;6287031;22;20910;-83
2021/08/30 09:52:59;;;;;;;13.10;12.50;;;18.60;99.90;;;;;;6287309;22;20494;-84
2021/08/30 09:55:37;;;;;;;11.67;11.17;;;18.70;99.90;;;;;;6285874;22;20957;-84
2021/08/30 09:58:27;;;;;;;11.27;10.77;;;18.80;99.90;;;;;;6286858;22;20761;-83
2021/08/30 10:00:58;;;;;;;11.17;10.67;;;18.80;99.60;;;;;;6287368;22;20782;-84
2021/08/30 10:03:39;;;;;;;11.27;10.73;;;18.80;98.30;;;;;;6286866;22;20418;-84
2021/08/30 10:06:07;;;;;;;11.10;10.60;;;18.90;98.50;;;;;;6286851;22;20434;-85
2021/08/30 10:08:38;;;;;;;11.07;10.57;;;19.00;99.30;;;;;;6286938;22;20880;-84
2021/08/30 10:11:07;;;;;;;11.10;10.50;;;19.30;99.60;;;;;;6275642;22;20410;-82
2021/08/30 10:13:36;;;;;;;11.30;10.70;;;19.40;96.80;;;;;;6286917;22;20438;-83
2021/08/30 10:16:06;;;;;;;9.90;9.40;;;19.30;94.80;;;;;;6276745;22;20464;-84
2021/08/30 10:18:36;;;;;;;10.10;9.50;;;19.40;94.30;;;;;;6287153;22;20410;-86
2021/08/30 10:21:15;;;;;;;9.43;8.93;;;19.50;93.90;;;;;;6286962;22;20417;-82
2021/08/30 10:23:45;;;;;;;9.00;8.50;;;19.60;93.70;;;;;;6276451;22;20397;-83
2021/08/30 10:29:14;;;;;;;8.07;7.67;;;19.60;93.90;;;;;;6277756;22;20410;-84
2021/08/30 10:31:56;;;;;;;8.93;8.47;;;19.30;93.20;;;;;;6276631;22;20454;-84
2021/08/30 10:34:30;;;;;;;7.67;7.27;;;19.20;94.80;;;;;;6284076;22;20913;-82
2021/08/30 10:37:01;;;;;;;8.33;7.83;;;19.10;94.10;;;;;;6274795;22;20448;-84
2021/08/30 10:39:39;;;;;;;8.83;8.33;;;19.00;94.70;;;;;;6276735;22;20728;-84
2021/08/30 10:42:14;;;;;;;7.90;7.50;;;18.80;94.60;;;;;;6285169;22;20414;-83
2021/08/30 10:45:13;;;;;;;8.20;7.80;;;18.70;95.40;;;;;;6276665;22;20472;-85
2021/08/30 10:47:47;;;;;;;7.43;7.03;;;18.50;95.30;;;;;;6286872;22;20405;-84
2021/08/30 10:50:24;;;;;;;8.33;7.93;;;18.50;96.60;;;;;;6286368;22;20420;-82
2021/08/30 10:53:16;;;;;;;7.70;7.30;;;18.30;97.80;;;;;;6276147;22;20920;-83
2021/08/30 10:55:46;;;;;;;8.67;8.23;;;18.30;97.80;;;;;;6285174;22;20415;-82
2021/08/30 10:58:20;;;;;;;8.90;8.40;;;18.30;99.20;;;;;;6275387;22;20411;-86
2021/08/30 11:00:49;;;;;;;9.43;8.93;;;18.20;98.60;;;;;;6286231;22;20160;-83
2021/08/30 11:03:31;;;;;;;9.60;9.10;;;18.20;99.70;;;;;;6286436;22;20784;-84
2021/08/30 11:06:09;;;;;;;10.50;10.00;;;18.20;99.90;;;;;;6276447;22;20489;-84
2021/08/30 11:08:37;;;;;;;10.20;9.70;;;18.00;99.90;;;;;;6286818;22;20413;-82
2021/08/30 11:11:14;;;;;;;11.20;10.70;;;18.00;99.90;;;;;;6274797;22;20399;-84
2021/08/30 11:13:44;;;;;;;13.27;12.67;;;17.70;99.90;;;;;;6276088;22;20486;-83
2021/08/30 11:16:19;;;;;;;13.80;13.20;;;17.70;99.90;;;;;;6286753;22;20406;-83
2021/08/30 11:18:57;;;;;;;12.23;11.67;;;17.70;99.90;;;;;;6286736;22;20410;-84
2021/08/30 11:21:47;;;;;;;15.90;15.20;;;17.70;99.90;;;;;;6286927;22;20483;-87
2021/08/30 11:24:35;;;;;;;15.00;14.40;;;17.80;99.90;;;;;;6286862;22;20459;-84
2021/08/30 11:27:05;;;;;;;10.83;10.33;;;18.00;99.90;;;;;;6275812;22;20437;-84
2021/08/30 11:29:35;;;;;;;12.80;12.20;;;18.00;99.90;;;;;;6289976;22;20512;-83
2021/08/30 11:32:02;;;;;;;10.17;9.67;;;18.00;99.90;;;;;;6288568;22;20413;-85
2021/08/30 11:34:31;;;;;;;11.40;10.90;;;18.10;99.90;;;;;;6288773;22;20456;-82
2021/08/30 11:36:59;;;;;;;12.33;11.73;;;18.30;99.90;;;;;;6278374;22;20775;-84
2021/08/30 11:39:27;;;;;;;9.17;8.77;;;18.50;99.90;;;;;;6288650;22;20406;-85
2021/08/30 11:41:57;;;;;;;9.10;8.70;;;18.60;99.90;;;;;;6276429;22;20404;-84
2021/08/30 11:44:25;;;;;;;9.10;8.70;;;18.80;99.90;;;;;;6288572;22;20402;-84
2021/08/30 11:46:56;;;;;;;9.47;8.97;;;19.00;99.90;;;;;;6288526;22;20432;-88
2021/08/30 11:49:23;;;;;;;11.67;11.00;;;19.30;99.90;;;;;;6278278;22;20398;-83
2021/08/30 11:51:52;;;;;;;8.63;8.23;;;19.60;97.30;;;;;;6278338;22;20420;-84
2021/08/30 11:54:27;;;;;;;8.90;8.40;;;19.80;95.20;;;;;;6277801;22;20452;-84
2021/08/30 11:56:55;;;;;;;6.90;6.50;;;19.90;93.80;;;;;;6286873;22;20399;-86
2021/08/30 11:59:30;;;;;;;6.90;6.50;;;20.10;91.90;;;;;;6287933;22;20494;-85
2021/08/30 12:01:59;;;;;;;8.10;7.60;;;20.20;91.80;;;;;;6278182;22;20432;-87
2021/08/30 12:04:32;;;;;;;6.40;6.00;;;20.00;89.90;;;;;;6288394;22;20406;-84
2021/08/30 12:07:01;;;;;;;5.97;5.60;;;20.10;90.90;;;;;;6287896;22;20460;-87
2021/08/30 12:09:39;;;;;;;16.67;12.80;;;20.00;89.00;;;;;;6278023;22;20402;-87
2021/08/30 12:12:15;;;;;;;16.90;11.63;;;20.30;90.80;;;;;;6286751;22;20411;-84
2021/08/30 12:15:02;;;;;;;20.90;14.50;;;20.40;89.00;;;;;;6288095;22;20433;-84
2021/08/30 12:17:33;;;;;;;21.80;14.00;;;20.40;82.60;;;;;;6278078;22;20422;-85
2021/08/30 12:20:05;;;;;;;22.27;14.43;;;20.50;84.80;;;;;;6287952;22;20467;-86
2021/08/30 12:22:35;;;;;;;17.13;12.37;;;20.50;81.80;;;;;;6278004;22;20463;-84
2021/08/30 12:25:16;;;;;;;16.23;12.33;;;20.50;77.90;;;;;;6277550;22;20459;-87
2021/08/30 12:27:45;;;;;;;18.17;13.20;;;20.60;73.40;;;;;;6287747;22;20434;-83
2021/08/30 12:30:16;;;;;;;19.60;12.93;;;20.80;71.60;;;;;;6287785;22;20444;-86
2021/08/30 12:33:09;;;;;;;16.77;12.27;;;20.90;67.00;;;;;;6288135;22;20409;-87
2021/08/30 12:35:38;;;;;;;17.83;13.37;;;21.30;68.20;;;;;;6277811;22;20408;-87
2021/08/30 12:38:07;;;;;;;18.77;12.27;;;21.30;68.40;;;;;;6287907;22;20917;-85
2021/08/30 12:40:36;;;;;;;17.37;11.97;;;21.40;66.20;;;;;;6287044;22;20866;-88
2021/08/30 12:43:04;;;;;;;17.13;11.87;;;21.80;63.50;;;;;;6287543;22;20406;-89
2021/08/30 12:45:32;;;;;;;16.47;11.20;;;21.90;60.40;;;;;;6287911;22;20412;-88
2021/08/30 12:48:01;;;;;;;17.77;10.60;;;21.90;55.20;;;;;;6287738;22;20407;-85
2021/08/30 12:50:30;;;;;;;16.80;12.33;;;21.70;58.00;;;;;;6287952;22;20880;-88
2021/08/30 12:52:57;;;;;;;16.50;11.33;;;21.70;61.60;;;;;;6277687;22;20410;-87
2021/08/30 12:55:24;;;;;;;17.23;12.70;;;21.40;58.70;;;;;;6285813;22;20413;-85
2021/08/30 12:57:53;;;;;;;12.20;9.23;;;21.60;64.20;;;;;;6277491;22;20433;-85
2021/08/30 13:00:39;;;;;;;9.27;6.90;;;21.50;60.40;;;;;;6287282;22;20492;-84
2021/08/30 13:03:07;;;;;;;12.40;6.77;;;21.20;61.50;;;;;;6287767;22;20417;-85
2021/08/30 13:05:39;;;;;;;13.73;10.13;;;21.10;58.20;;;;;;6277484;22;20400;-84
2021/08/30 13:08:07;;;;;;;10.63;7.97;;;21.10;59.50;;;;;;6276056;22;20439;-83
2021/08/30 13:10:37;;;;;;;11.43;7.53;;;21.10;59.50;;;;;;6274113;22;21225;-83
2021/08/30 13:13:08;;;;;;;13.30;7.37;;;21.10;57.90;;;;;;6287157;22;20421;-84
2021/08/30 13:15:50;;;;;;;13.70;9.13;;;21.30;57.50;;;;;;6277263;22;20455;-84
2021/08/30 13:18:18;;;;;;;13.60;8.73;;;21.40;60.60;;;;;;6277204;22;20401;-86
2021/08/30 13:21:15;;;;;;;12.40;7.90;;;21.20;57.20;;;;;;6287294;22;20883;-83
2021/08/30 13:23:46;;;;;;;17.53;9.17;;;21.10;58.60;;;;;;6259278;22;20412;-84
2021/08/30 13:26:30;;;;;;;10.50;7.87;;;21.20;58.40;;;;;;6286262;22;20456;-85
2021/08/30 13:28:57;;;;;;;10.87;6.90;;;21.40;55.60;;;;;;6277193;22;20730;-85
2021/08/30 13:31:26;;;;;;;14.20;9.03;;;21.70;57.80;;;;;;6277061;22;20512;-84
2021/08/30 13:33:56;;;;;;;13.50;8.40;;;21.70;56.10;;;;;;6277278;22;20945;-87
2021/08/30 13:36:24;;;;;;;20.40;11.70;;;22.00;57.90;;;;;;6287443;22;20407;-88
2021/08/30 13:38:55;;;;;;;10.63;7.57;;;21.90;57.30;;;;;;6287066;22;20412;-89
2021/08/30 13:41:22;;;;;;;18.67;11.77;;;21.70;54.40;;;;;;6285605;22;20495;-86
2021/08/30 13:47:01;;;;;;;16.73;9.80;;;22.50;55.60;;;;;;6248438;22;20441;-86
2021/08/30 13:49:42;;;;;;;12.43;9.67;;;22.50;54.40;;;;;;6276670;22;20411;-86
2021/08/30 13:52:11;;;;;;;12.97;9.80;;;23.20;51.30;;;;;;6276559;22;20732;-87
2021/08/30 13:54:48;;;;;;;14.60;11.33;;;23.30;48.90;;;;;;6277383;22;20444;-84
2021/08/30 13:57:15;;;;;;;13.50;8.10;;;23.30;51.20;;;;;;6285397;22;20479;-86
2021/08/30 13:59:43;;;;;;;14.00;9.50;;;22.40;46.60;;;;;;6276954;22;20391;-87
2021/08/30 14:02:11;;;;;;;12.27;7.40;;;21.90;53.00;;;;;;6276871;22;20456;-86
2021/08/30 14:04:38;;;;;;;12.70;9.07;;;21.30;52.60;;;;;;6277019;22;20397;-85
2021/08/30 14:07:07;;;;;;;14.23;10.03;;;21.20;55.20;;;;;;6276483;22;20431;-84
2021/08/30 14:09:35;;;;;;;12.37;8.17;;;21.00;57.50;;;;;;6286933;22;20404;-85
2021/08/30 14:12:04;;;;;;;14.30;9.50;;;20.80;54.30;;;;;;6275214;22;20405;-86
2021/08/30 14:14:33;;;;;;;16.23;10.23;;;20.70;58.80;;;;;;6286719;22;20448;-85
2021/08/30 14:17:02;;;;;;;12.93;8.90;;;20.50;60.60;;;;;;6286664;22;20823;-85
2021/08/30 14:19:29;;;;;;;17.67;10.40;;;20.40;60.90;;;;;;6287120;22;20413;-84
2021/08/30 14:21:57;;;;;;;19.50;10.70;;;20.40;61.00;;;;;;6276516;22;20401;-86
2021/08/30 14:24:24;;;;;;;15.43;10.40;;;20.50;64.20;;;;;;6287081;22;20413;-87
2021/08/30 14:26:51;;;;;;;16.63;10.80;;;20.40;63.00;;;;;;6284939;22;20500;-86
2021/08/30 14:29:20;;;;;;;14.13;9.50;;;20.50;64.50;;;;;;6286627;22;20417;-83
2021/08/30 14:31:48;;;;;;;15.43;10.07;;;20.60;61.90;;;;;;6286994;22;20416;-85
2021/08/30 14:34:17;;;;;;;15.23;10.20;;;20.70;62.50;;;;;;6276697;22;20707;-86
2021/08/30 14:36:44;;;;;;;15.73;9.40;;;20.80;59.60;;;;;;6276463;22;20731;-86
2021/08/30 14:39:17;;;;;;;14.50;8.90;;;20.90;57.60;;;;;;6286648;22;20459;-86
2021/08/30 14:41:43;;;;;;;15.20;8.67;;;21.20;56.50;;;;;;6275108;22;20420;-83
2021/08/30 14:44:10;;;;;;;13.77;9.40;;;21.20;55.20;;;;;;6286525;22;20398;-83
2021/08/30 14:46:43;;;;;;;13.60;9.20;;;21.30;53.10;;;;;;6276583;22;20429;-86
2021/08/30 14:49:13;;;;;;;10.73;7.40;;;21.20;54.30;;;;;;6286498;22;20791;-87
2021/08/30 14:51:43;;;;;;;14.70;8.90;;;21.00;52.20;;;;;;6276612;22;20404;-86
2021/08/30 14:54:24;;;;;;;10.67;7.77;;;21.00;55.80;;;;;;6286590;22;20885;-86
2021/08/30 14:57:06;;;;;;;12.37;6.60;;;20.80;54.00;;;;;;6274938;22;20432;-86
2021/08/30 14:59:33;;;;;;;15.03;8.03;;;20.60;52.10;;;;;;6286617;22;20405;-86
2021/08/30 15:02:09;;;;;;;12.70;8.70;;;20.50;54.70;;;;;;6278049;22;20454;-85
2021/08/30 15:04:40;;;;;;;13.20;7.30;;;20.50;58.80;;;;;;6289067;22;20408;-84
2021/08/30 15:07:07;;;;;;;11.10;7.33;;;20.40;57.20;;;;;;6288767;22;20443;-85
2021/08/30 15:09:36;;;;;;;14.80;7.40;;;20.40;55.10;;;;;;6278638;22;20871;-87
2021/08/30 15:12:07;;;;;;;14.40;8.60;;;20.40;58.50;;;;;;6277338;22;20400;-88
2021/08/30 15:14:48;;;;;;;14.60;8.53;;;20.30;58.70;;;;;;6277994;22;20541;-88
2021/08/30 15:17:16;;;;;;;14.70;7.50;;;20.20;61.20;;;;;;6288629;22;20424;-88
2021/08/30 15:19:50;;;;;;;12.43;8.10;;;20.10;62.00;;;;;;6288779;22;20407;-88
2021/08/30 15:22:20;;;;;;;13.80;8.50;;;20.00;64.40;;;;;;6288714;22;20409;-87
2021/08/30 15:25:03;;;;;;;13.73;8.33;;;19.70;74.90;;;;;;6278557;22;20859;-87
2021/08/30 15:34:47;;;;;;;;;;;;;;;;;;;;;
2021/08/30 15:40:15;;;;;;;33.50;30.93;;;16.70;99.90;;;;;;6148871;23;20420;-88
2021/08/30 15:43:00;;;;;;;61.87;57.80;;;16.90;99.90;;;;;;6217195;22;20442;-85
2021/08/30 15:45:33;;;;;;;34.93;32.27;;;17.00;99.90;;;;;;6275756;22;20476;-85
2021/08/30 15:48:01;;;;;;;42.47;39.87;;;17.00;99.90;;;;;;6288298;22;20438;-85
2021/08/30 15:50:28;;;;;;;41.73;38.97;;;17.10;99.90;;;;;;6278293;22;20402;-77
2021/08/30 15:52:56;;;;;;;29.70;27.50;;;17.10;99.90;;;;;;6277900;22;20452;-79
2021/08/30 15:55:31;;;;;;;31.60;29.23;;;17.20;99.90;;;;;;6276301;22;20397;-85
2021/08/30 15:57:58;;;;;;;35.33;32.83;;;17.20;99.90;;;;;;6278260;22;20729;-88
2021/08/30 16:00:28;;;;;;;30.77;28.50;;;17.30;99.90;;;;;;6278248;22;20449;-87
2021/08/30 16:02:56;;;;;;;35.03;32.13;;;17.30;99.90;;;;;;6288405;22;20799;-83
2021/08/30 16:05:25;;;;;;;51.47;47.87;;;17.40;99.90;;;;;;6278042;22;20513;-84
2021/08/30 16:07:52;;;;;;;47.70;44.93;;;17.60;99.90;;;;;;6278087;22;20465;-83
2021/08/30 16:10:28;;;;;;;57.70;54.80;;;17.70;99.90;;;;;;6286448;22;20442;-82
2021/08/30 16:13:01;;;;;;;54.37;51.27;;;17.80;99.90;;;;;;6277182;22;20448;-82
2021/08/30 16:15:39;;;;;;;;;;;;;;;;;;;;;
2021/08/30 16:18:06;;;;;;;76.50;72.30;;;18.00;99.90;;;;;;6285553;22;20407;-82
2021/08/30 16:20:40;;;;;;;72.47;68.77;;;18.10;99.90;;;;;;6288284;22;20451;-82
2021/08/30 16:23:08;;;;;;;75.87;71.77;;;18.10;99.90;;;;;;6277969;22;20409;-82
2021/08/30 16:25:38;;;;;;;73.10;69.27;;;18.20;99.90;;;;;;6276639;22;20740;-83
2021/08/30 16:28:08;;;;;;;81.37;76.87;;;18.20;99.90;;;;;;6287842;22;20428;-81
2021/08/30 16:30:35;;;;;;;62.13;58.83;;;18.40;99.90;;;;;;6277787;22;20792;-81
2021/08/30 16:33:03;;;;;;;63.60;59.97;;;18.30;99.90;;;;;;6277888;22;20399;-81
2021/08/30 16:35:30;;;;;;;78.57;74.47;;;18.60;99.90;;;;;;6277946;22;20496;-82
2021/08/30 16:38:00;;;;;;;80.73;76.30;;;18.70;99.90;;;;;;6283960;22;20473;-83
2021/08/30 16:40:31;;;;;;;34.30;31.33;;;19.00;99.90;;;;;;6274619;22;20407;-84
2021/08/30 16:43:03;;;;;;;29.70;27.40;;;18.90;99.90;;;;;;6275521;22;20442;-82
2021/08/30 16:45:33;;;;;;;27.27;24.70;;;18.90;99.90;;;;;;6276006;22;20904;-82
2021/08/30 16:48:00;;;;;;;22.37;20.17;;;19.00;99.90;;;;;;6285592;22;20450;-83
2021/08/30 16:50:28;;;;;;;17.80;15.23;;;19.20;99.90;;;;;;6285993;22;20413;-83
2021/08/30 16:52:55;;;;;;;18.43;16.63;;;19.10;97.10;;;;;;6276897;22;20486;-77
2021/08/30 16:55:22;;;;;;;21.07;18.87;;;19.10;95.90;;;;;;6276159;22;20489;-84
2021/08/30 16:57:51;;;;;;;21.50;19.37;;;19.60;94.80;;;;;;6277646;22;20399;-82
2021/08/30 17:00:19;;;;;;;15.03;12.30;;;20.20;91.80;;;;;;6287511;22;20903;-83
2021/08/30 17:02:46;;;;;;;18.33;13.30;;;20.60;80.00;;;;;;6277604;22;20433;-82
2021/08/30 17:05:13;;;;;;;17.87;14.90;;;20.50;83.00;;;;;;6277585;22;20405;-83
2021/08/30 17:07:40;;;;;;;16.87;15.03;;;20.20;82.90;;;;;;6277310;22;20443;-84
2021/08/30 17:10:09;;;;;;;16.70;15.10;;;20.40;83.30;;;;;;6277401;22;20415;-83
2021/08/30 17:12:40;;;;;;;19.57;17.67;;;20.80;80.50;;;;;;6286270;22;20411;-83
2021/08/30 17:15:08;;;;;;;19.97;14.57;;;21.50;80.00;;;;;;6287190;22;20823;-83
2021/08/30 17:17:38;;;;;;;14.77;13.17;;;21.90;75.30;;;;;;6287706;22;20410;-82
2021/08/30 17:20:08;;;;;;;19.80;14.43;;;21.90;70.20;;;;;;6287206;22;20418;-83
2021/08/30 17:22:38;;;;;;;16.60;14.50;;;21.60;74.60;;;;;;6234095;22;20454;-83
2021/08/30 17:25:09;;;;;;;19.87;13.03;;;21.40;75.40;;;;;;6276974;22;20411;-84
2021/08/30 17:27:37;;;;;;;17.27;15.53;;;21.60;75.50;;;;;;6286137;22;20478;-82
2021/08/30 17:30:05;;;;;;;19.00;17.20;;;21.00;78.50;;;;;;6287123;22;20417;-83
2021/08/30 17:32:34;;;;;;;19.30;17.30;;;20.50;79.70;;;;;;6287597;22;20492;-82
2021/08/30 17:35:06;;;;;;;16.70;14.90;;;20.00;84.70;;;;;;6286985;22;20916;-82
2021/08/30 17:37:36;;;;;;;20.37;18.27;;;19.70;86.70;;;;;;6276901;22;20405;-82
2021/08/30 17:40:07;;;;;;;26.57;24.10;;;19.30;90.90;;;;;;6277279;22;20430;-86
2021/08/30 17:42:40;;;;;;;36.90;34.10;;;19.10;94.90;;;;;;6275854;22;20730;-83
2021/08/30 17:45:14;;;;;;;42.53;39.83;;;18.80;99.40;;;;;;6277207;22;20486;-83
2021/08/30 17:47:42;;;;;;;41.07;38.37;;;18.60;99.90;;;;;;6276869;22;20436;-82
2021/08/30 17:50:16;;;;;;;42.10;39.20;;;18.40;99.90;;;;;;6286928;22;20454;-83
2021/08/30 17:52:43;;;;;;;43.73;41.03;;;18.30;99.90;;;;;;6285424;22;20722;-83
2021/08/30 17:55:11;;;;;;;56.30;52.27;;;18.10;99.90;;;;;;6284616;22;20439;-83
2021/08/30 17:57:40;;;;;;;62.40;58.90;;;18.00;99.90;;;;;;6273970;22;20404;-84
2021/08/30 18:00:09;;;;;;;69.23;65.23;;;17.90;99.90;;;;;;6274918;22;20998;-82
2021/08/30 18:02:37;;;;;;;72.53;68.23;;;17.70;99.90;;;;;;6285114;22;20505;-82
2021/08/30 18:05:04;;;;;;;72.80;69.00;;;17.60;99.90;;;;;;6274580;22;20404;-82
2021/08/30 18:07:32;;;;;;;77.07;72.97;;;17.40;99.90;;;;;;6274848;22;20431;-81
2021/08/30 18:09:59;;;;;;;81.70;77.20;;;17.30;99.90;;;;;;6274976;22;20426;-82
2021/08/30 18:12:26;;;;;;;83.97;79.10;;;17.20;99.90;;;;;;6273281;22;20478;-84
2021/08/30 18:14:53;;;;;;;90.70;86.00;;;17.10;99.90;;;;;;6274373;22;20523;-83
2021/08/30 18:17:20;;;;;;;98.83;93.67;;;17.00;99.90;;;;;;6276803;22;20483;-82
2021/08/30 18:19:50;;;;;;;106.20;100.40;;;16.90;99.90;;;;;;6276360;22;20884;-82
2021/08/30 18:22:17;;;;;;;110.90;105.00;;;16.70;99.90;;;;;;6276399;22;20397;-82
2021/08/30 18:24:45;;;;;;;118.40;112.10;;;16.60;99.90;;;;;;6287051;22;20450;-83
2021/08/30 18:27:12;;;;;;;126.27;119.17;;;16.60;99.90;;;;;;6275255;22;20401;-82
2021/08/30 18:29:39;;;;;;;136.57;129.17;;;16.50;99.90;;;;;;6276754;22;20428;-83
2021/08/30 18:32:09;;;;;;;141.13;133.63;;;16.40;99.90;;;;;;6276578;22;20405;-82
2021/08/30 18:34:36;;;;;;;143.60;135.90;;;16.40;99.90;;;;;;6286538;22;20462;-83
2021/08/30 18:37:04;;;;;;;145.77;138.17;;;16.30;99.90;;;;;;6276526;22;20422;-83
2021/08/30 18:39:34;;;;;;;137.80;130.30;;;16.20;99.90;;;;;;6276692;22;20407;-83
2021/08/30 18:42:02;;;;;;;141.20;133.50;;;16.20;99.90;;;;;;6275203;22;20400;-82
2021/08/30 18:44:31;;;;;;;148.20;140.00;;;16.10;99.90;;;;;;6286588;22;20910;-81
2021/08/30 18:46:58;;;;;;;145.00;137.20;;;15.90;99.90;;;;;;6287040;22;20409;-81
2021/08/30 18:49:25;;;;;;;150.67;142.00;;;15.70;99.90;;;;;;6276569;22;20432;-82
2021/08/30 18:51:54;;;;;;;150.50;141.97;;;15.60;99.90;;;;;;6276604;22;20722;-82
2021/08/30 18:54:21;;;;;;;158.07;149.17;;;15.40;99.90;;;;;;6276315;22;20725;-83
2021/08/30 18:56:48;;;;;;;161.70;152.73;;;15.30;99.90;;;;;;6274872;22;20978;-82
2021/08/30 18:59:17;;;;;;;176.47;166.53;;;15.20;99.90;;;;;;6286951;22;20379;-84
2021/08/30 19:01:46;;;;;;;186.43;175.87;;;15.00;99.90;;;;;;6276609;22;20395;-83
2021/08/30 19:04:13;;;;;;;189.17;177.93;;;14.90;99.90;;;;;;6286742;22;20423;-83
2021/08/30 19:06:40;;;;;;;192.13;180.93;;;14.90;99.90;;;;;;6276533;22;20457;-83
2021/08/30 19:09:07;;;;;;;201.03;189.63;;;14.90;99.90;;;;;;6276376;22;20433;-84
2021/08/30 19:11:34;;;;;;;204.77;192.63;;;14.80;99.90;;;;;;6275182;22;20920;-82